sensor_id;sensor_type;location;lat;lon;timestamp;pressure;altitude;pressure_sealevel;temperature;humidity
49759;BME280;35654;46.080;11.118;2023-04-21T00:01:04;99296.22;;;11.09;100.00
49759;BME280;35654;46.080;11.118;2023-04-21T00:03:33;99297.88;;;11.10;100.00
49759;BME280;35654;46.080;11.118;2023-04-21T00:06:03;99288.94;;;11.04;100.00
49759;BME280;35654;46.080;11.118;2023-04-21T00:08:33;99304.31;;;11.00;100.00
49759;BME280;35654;46.080;11.118;2023-04-21T00:11:01;99290.03;;;11.03;100.00
49759;BME280;35654;46.080;11.118;2023-04-21T00:13:27;99290.03;;;11.03;100.00
49759;BME280;35654;46.080;11.118;2023-04-21T00:15:52;99284.53;;;11.03;100.00
49759;BME280;35654;46.080;11.118;2023-04-21T00:18:19;99284.25;;;11.05;100.00
49759;BME280;35654;46.080;11.118;2023-04-21T00:20:45;99282.16;;;11.16;100.00
49759;BME280;35654;46.080;11.118;2023-04-21T00:23:12;99275.03;;;11.15;100.00
49759;BME280;35654;46.080;11.118;2023-04-21T00:25:38;99280.50;;;11.15;100.00
49759;BME280;35654;46.080;11.118;2023-04-21T00:28:05;99271.97;;;11.02;100.00
49759;BME280;35654;46.080;11.118;2023-04-21T00:30:31;99263.53;;;10.99;100.00
49759;BME280;35654;46.080;11.118;2023-04-21T00:32:58;99276.63;;;11.02;100.00
49759;BME280;35654;46.080;11.118;2023-04-21T00:35:24;99271.28;;;11.10;100.00
49759;BME280;35654;46.080;11.118;2023-04-21T00:37:51;99265.88;;;11.05;100.00
49759;BME280;35654;46.080;11.118;2023-04-21T00:40:18;99265.97;;;11.00;100.00
49759;BME280;35654;46.080;11.118;2023-04-21T00:42:44;99265.22;;;10.95;100.00
49759;BME280;35654;46.080;11.118;2023-04-21T00:45:11;99266.88;;;10.96;100.00
49759;BME280;35654;46.080;11.118;2023-04-21T00:47:37;99267.00;;;11.04;100.00
49759;BME280;35654;46.080;11.118;2023-04-21T00:50:04;99262.63;;;11.03;100.00
49759;BME280;35654;46.080;11.118;2023-04-21T00:52:30;99265.84;;;10.92;100.00
49759;BME280;35654;46.080;11.118;2023-04-21T00:54:58;99254.81;;;10.97;100.00
49759;BME280;35654;46.080;11.118;2023-04-21T00:57:23;99261.81;;;11.03;100.00
49759;BME280;35654;46.080;11.118;2023-04-21T00:59:51;99265.69;;;11.02;100.00
49759;BME280;35654;46.080;11.118;2023-04-21T01:02:17;99264.25;;;11.04;100.00
49759;BME280;35654;46.080;11.118;2023-04-21T01:04:43;99264.63;;;10.98;100.00
49759;BME280;35654;46.080;11.118;2023-04-21T01:07:10;99259.16;;;10.98;100.00
49759;BME280;35654;46.080;11.118;2023-04-21T01:09:37;99266.84;;;10.82;100.00
49759;BME280;35654;46.080;11.118;2023-04-21T01:12:05;99261.44;;;10.77;100.00
49759;BME280;35654;46.080;11.118;2023-04-21T01:14:32;99264.69;;;10.79;100.00
49759;BME280;35654;46.080;11.118;2023-04-21T01:16:58;99274.00;;;10.78;100.00
49759;BME280;35654;46.080;11.118;2023-04-21T01:19:25;99276.47;;;10.80;100.00
49759;BME280;35654;46.080;11.118;2023-04-21T01:21:53;99277.88;;;10.77;100.00
49759;BME280;35654;46.080;11.118;2023-04-21T01:24:23;99277.88;;;10.77;100.00
49759;BME280;35654;46.080;11.118;2023-04-21T01:26:50;99285.19;;;10.82;100.00
49759;BME280;35654;46.080;11.118;2023-04-21T01:29:16;99283.34;;;10.77;100.00
49759;BME280;35654;46.080;11.118;2023-04-21T01:31:43;99274.47;;;10.67;100.00
49759;BME280;35654;46.080;11.118;2023-04-21T01:34:13;99272.25;;;10.69;100.00
49759;BME280;35654;46.080;11.118;2023-04-21T01:36:40;99275.41;;;10.76;100.00
49759;BME280;35654;46.080;11.118;2023-04-21T01:39:06;99270.03;;;10.71;100.00
49759;BME280;35654;46.080;11.118;2023-04-21T01:41:33;99264.91;;;10.64;100.00
49759;BME280;35654;46.080;11.118;2023-04-21T01:43:59;99270.53;;;10.73;100.00
49759;BME280;35654;46.080;11.118;2023-04-21T01:46:26;99274.25;;;10.63;100.00
49759;BME280;35654;46.080;11.118;2023-04-21T01:48:52;99271.38;;;10.55;100.00
49759;BME280;35654;46.080;11.118;2023-04-21T01:51:19;99271.88;;;10.57;100.00
49759;BME280;35654;46.080;11.118;2023-04-21T01:53:45;99267.47;;;10.61;100.00
49759;BME280;35654;46.080;11.118;2023-04-21T01:56:12;99268.19;;;10.66;100.00
49759;BME280;35654;46.080;11.118;2023-04-21T01:58:39;99267.06;;;10.67;100.00
49759;BME280;35654;46.080;11.118;2023-04-21T02:01:05;99264.91;;;10.64;100.00
49759;BME280;35654;46.080;11.118;2023-04-21T02:03:31;99257.28;;;10.61;100.00
49759;BME280;35654;46.080;11.118;2023-04-21T02:05:58;99269.56;;;10.64;100.00
49759;BME280;35654;46.080;11.118;2023-04-21T02:08:24;99266.06;;;10.63;100.00
49759;BME280;35654;46.080;11.118;2023-04-21T02:10:50;99265.47;;;10.66;100.00
49759;BME280;35654;46.080;11.118;2023-04-21T02:13:17;99265.13;;;10.68;100.00
49759;BME280;35654;46.080;11.118;2023-04-21T02:15:43;99264.25;;;10.72;100.00
49759;BME280;35654;46.080;11.118;2023-04-21T02:18:10;99265.28;;;10.76;100.00
49759;BME280;35654;46.080;11.118;2023-04-21T02:20:35;99262.84;;;10.75;100.00
49759;BME280;35654;46.080;11.118;2023-04-21T02:23:02;99273.28;;;10.73;100.00
49759;BME280;35654;46.080;11.118;2023-04-21T02:25:29;99269.81;;;10.67;100.00
49759;BME280;35654;46.080;11.118;2023-04-21T02:27:55;99268.78;;;10.63;100.00
49759;BME280;35654;46.080;11.118;2023-04-21T02:30:22;99266.25;;;10.67;100.00
49759;BME280;35654;46.080;11.118;2023-04-21T02:32:49;99268.47;;;10.65;100.00
49759;BME280;35654;46.080;11.118;2023-04-21T02:35:15;99268.97;;;10.67;100.00
49759;BME280;35654;46.080;11.118;2023-04-21T02:37:42;99271.22;;;10.65;100.00
49759;BME280;35654;46.080;11.118;2023-04-21T02:40:09;99273.53;;;10.58;100.00
49759;BME280;35654;46.080;11.118;2023-04-21T02:42:35;99271.81;;;10.62;100.00
49759;BME280;35654;46.080;11.118;2023-04-21T02:45:02;99267.16;;;10.62;100.00
49759;BME280;35654;46.080;11.118;2023-04-21T02:47:29;99266.84;;;10.64;100.00
49759;BME280;35654;46.080;11.118;2023-04-21T02:49:55;99270.19;;;10.61;100.00
49759;BME280;35654;46.080;11.118;2023-04-21T02:52:22;99264.50;;;10.57;100.00
49759;BME280;35654;46.080;11.118;2023-04-21T02:54:50;99266.50;;;10.51;100.00
49759;BME280;35654;46.080;11.118;2023-04-21T02:57:16;99255.91;;;10.45;100.00
49759;BME280;35654;46.080;11.118;2023-04-21T02:59:43;99254.66;;;10.37;100.00
49759;BME280;35654;46.080;11.118;2023-04-21T03:02:10;99255.47;;;10.38;100.00
49759;BME280;35654;46.080;11.118;2023-04-21T03:04:37;99263.69;;;10.38;100.00
49759;BME280;35654;46.080;11.118;2023-04-21T03:07:03;99254.44;;;10.34;100.00
49759;BME280;35654;46.080;11.118;2023-04-21T03:09:30;99252.38;;;10.26;100.00
49759;BME280;35654;46.080;11.118;2023-04-21T03:11:57;99264.47;;;10.20;100.00
49759;BME280;35654;46.080;11.118;2023-04-21T03:14:23;99267.00;;;10.16;100.00
49759;BME280;35654;46.080;11.118;2023-04-21T03:16:50;99265.22;;;10.25;100.00
49759;BME280;35654;46.080;11.118;2023-04-21T03:19:17;99263.00;;;10.27;100.00
49759;BME280;35654;46.080;11.118;2023-04-21T03:21:43;99268.72;;;10.31;100.00
49759;BME280;35654;46.080;11.118;2023-04-21T03:24:09;99270.03;;;10.33;100.00
49759;BME280;35654;46.080;11.118;2023-04-21T03:26:37;99268.19;;;10.29;100.00
49759;BME280;35654;46.080;11.118;2023-04-21T03:29:03;99264.28;;;10.35;100.00
49759;BME280;35654;46.080;11.118;2023-04-21T03:31:30;99266.13;;;10.39;100.00
49759;BME280;35654;46.080;11.118;2023-04-21T03:33:57;99268.84;;;10.39;100.00
49759;BME280;35654;46.080;11.118;2023-04-21T03:36:24;99272.41;;;10.40;100.00
49759;BME280;35654;46.080;11.118;2023-04-21T03:38:50;99268.56;;;10.41;100.00
49759;BME280;35654;46.080;11.118;2023-04-21T03:41:17;99273.47;;;10.44;100.00
49759;BME280;35654;46.080;11.118;2023-04-21T03:43:43;99271.91;;;10.38;100.00
49759;BME280;35654;46.080;11.118;2023-04-21T03:46:19;99265.16;;;10.30;100.00
49759;BME280;35654;46.080;11.118;2023-04-21T03:48:45;99279.13;;;10.29;100.00
49759;BME280;35654;46.080;11.118;2023-04-21T03:51:12;99268.28;;;10.24;100.00
49759;BME280;35654;46.080;11.118;2023-04-21T03:53:37;99269.09;;;10.24;100.00
49759;BME280;35654;46.080;11.118;2023-04-21T03:56:04;99270.13;;;10.28;100.00
49759;BME280;35654;46.080;11.118;2023-04-21T03:58:31;99276.09;;;10.30;100.00
49759;BME280;35654;46.080;11.118;2023-04-21T04:00:57;99273.16;;;10.27;100.00
49759;BME280;35654;46.080;11.118;2023-04-21T04:03:24;99269.84;;;10.30;100.00
49759;BME280;35654;46.080;11.118;2023-04-21T04:05:50;99277.88;;;10.21;100.00
49759;BME280;35654;46.080;11.118;2023-04-21T04:08:17;99281.28;;;10.13;100.00
49759;BME280;35654;46.080;11.118;2023-04-21T04:10:43;99284.53;;;10.15;100.00
49759;BME280;35654;46.080;11.118;2023-04-21T04:13:10;99288.84;;;10.21;100.00
49759;BME280;35654;46.080;11.118;2023-04-21T04:15:37;99287.19;;;10.20;100.00
49759;BME280;35654;46.080;11.118;2023-04-21T04:18:03;99284.47;;;10.20;100.00
49759;BME280;35654;46.080;11.118;2023-04-21T04:20:30;99288.69;;;10.13;100.00
49759;BME280;35654;46.080;11.118;2023-04-21T04:22:56;99282.53;;;10.21;100.00
49759;BME280;35654;46.080;11.118;2023-04-21T04:25:22;99291.56;;;10.21;100.00
49759;BME280;35654;46.080;11.118;2023-04-21T04:27:49;99291.63;;;10.16;100.00
49759;BME280;35654;46.080;11.118;2023-04-21T04:30:15;99294.00;;;10.23;100.00
49759;BME280;35654;46.080;11.118;2023-04-21T04:32:42;99295.56;;;10.29;100.00
49759;BME280;35654;46.080;11.118;2023-04-21T04:35:09;99294.66;;;10.33;100.00
49759;BME280;35654;46.080;11.118;2023-04-21T04:37:35;99300.97;;;10.34;100.00
49759;BME280;35654;46.080;11.118;2023-04-21T04:40:01;99304.06;;;10.27;100.00
49759;BME280;35654;46.080;11.118;2023-04-21T04:42:31;99304.94;;;10.23;100.00
49759;BME280;35654;46.080;11.118;2023-04-21T04:44:58;99303.84;;;10.24;100.00
49759;BME280;35654;46.080;11.118;2023-04-21T04:47:28;99309.09;;;10.39;100.00
49759;BME280;35654;46.080;11.118;2023-04-21T04:49:54;99308.00;;;10.40;100.00
49759;BME280;35654;46.080;11.118;2023-04-21T04:52:20;99310.50;;;10.36;100.00
49759;BME280;35654;46.080;11.118;2023-04-21T04:54:45;99307.25;;;10.34;100.00
49759;BME280;35654;46.080;11.118;2023-04-21T04:57:12;99302.28;;;10.36;100.00
49759;BME280;35654;46.080;11.118;2023-04-21T04:59:37;99309.63;;;10.41;100.00
49759;BME280;35654;46.080;11.118;2023-04-21T05:02:06;99305.69;;;10.47;100.00
49759;BME280;35654;46.080;11.118;2023-04-21T05:04:32;99318.34;;;10.62;100.00
49759;BME280;35654;46.080;11.118;2023-04-21T05:06:58;99317.09;;;10.73;100.00
49759;BME280;35654;46.080;11.118;2023-04-21T05:09:23;99324.13;;;10.79;100.00
49759;BME280;35654;46.080;11.118;2023-04-21T05:11:48;99318.97;;;10.77;100.00
49759;BME280;35654;46.080;11.118;2023-04-21T05:14:13;99319.97;;;10.81;100.00
49759;BME280;35654;46.080;11.118;2023-04-21T05:16:39;99331.16;;;10.85;100.00
49759;BME280;35654;46.080;11.118;2023-04-21T05:19:04;99331.66;;;10.87;100.00
49759;BME280;35654;46.080;11.118;2023-04-21T05:21:29;99334.72;;;10.85;100.00
49759;BME280;35654;46.080;11.118;2023-04-21T05:23:55;99343.13;;;10.89;100.00
49759;BME280;35654;46.080;11.118;2023-04-21T05:26:21;99346.47;;;11.04;100.00
49759;BME280;35654;46.080;11.118;2023-04-21T05:28:47;99343.72;;;11.04;100.00
49759;BME280;35654;46.080;11.118;2023-04-21T05:31:12;99344.47;;;11.10;100.00
49759;BME280;35654;46.080;11.118;2023-04-21T05:33:37;99347.19;;;11.10;100.00
49759;BME280;35654;46.080;11.118;2023-04-21T05:36:05;99346.25;;;11.01;100.00
49759;BME280;35654;46.080;11.118;2023-04-21T05:38:30;99345.94;;;11.02;100.00
49759;BME280;35654;46.080;11.118;2023-04-21T05:40:56;99337.38;;;11.23;100.00
49759;BME280;35654;46.080;11.118;2023-04-21T05:43:21;99344.63;;;11.32;100.00
49759;BME280;35654;46.080;11.118;2023-04-21T05:45:47;99351.03;;;11.28;100.00
49759;BME280;35654;46.080;11.118;2023-04-21T05:48:12;99341.25;;;11.22;100.00
49759;BME280;35654;46.080;11.118;2023-04-21T05:50:37;99348.47;;;11.31;100.00
49759;BME280;35654;46.080;11.118;2023-04-21T05:53:03;99349.72;;;11.39;100.00
49759;BME280;35654;46.080;11.118;2023-04-21T05:55:28;99347.06;;;11.34;100.00
49759;BME280;35654;46.080;11.118;2023-04-21T05:57:53;99342.47;;;11.29;100.00
49759;BME280;35654;46.080;11.118;2023-04-21T06:00:19;99340.53;;;11.16;100.00
49759;BME280;35654;46.080;11.118;2023-04-21T06:02:44;99346.38;;;11.42;100.00
49759;BME280;35654;46.080;11.118;2023-04-21T06:05:09;99347.63;;;11.49;100.00
49759;BME280;35654;46.080;11.118;2023-04-21T06:07:35;99344.19;;;11.57;100.00
49759;BME280;35654;46.080;11.118;2023-04-21T06:10:01;99354.94;;;11.54;100.00
49759;BME280;35654;46.080;11.118;2023-04-21T06:12:26;99353.41;;;11.61;100.00
49759;BME280;35654;46.080;11.118;2023-04-21T06:14:51;99352.19;;;11.54;100.00
49759;BME280;35654;46.080;11.118;2023-04-21T06:17:22;99356.16;;;11.61;100.00
49759;BME280;35654;46.080;11.118;2023-04-21T06:19:49;99357.25;;;11.79;99.34
49759;BME280;35654;46.080;11.118;2023-04-21T06:22:19;99361.84;;;11.97;98.89
49759;BME280;35654;46.080;11.118;2023-04-21T06:24:46;99355.03;;;11.95;97.75
49759;BME280;35654;46.080;11.118;2023-04-21T06:27:13;99360.69;;;12.25;95.11
49759;BME280;35654;46.080;11.118;2023-04-21T06:29:39;99361.34;;;12.22;92.74
49759;BME280;35654;46.080;11.118;2023-04-21T06:32:07;99352.19;;;12.27;92.67
49759;BME280;35654;46.080;11.118;2023-04-21T06:34:34;99345.66;;;12.50;92.10
49759;BME280;35654;46.080;11.118;2023-04-21T06:37:01;99354.28;;;12.57;92.74
49759;BME280;35654;46.080;11.118;2023-04-21T06:39:27;99355.31;;;12.48;92.50
49759;BME280;35654;46.080;11.118;2023-04-21T06:41:54;99351.25;;;12.32;95.50
49759;BME280;35654;46.080;11.118;2023-04-21T06:44:23;99352.06;;;12.32;94.54
49759;BME280;35654;46.080;11.118;2023-04-21T06:46:49;99350.72;;;12.43;95.16
49759;BME280;35654;46.080;11.118;2023-04-21T06:49:16;99348.06;;;12.52;95.36
49759;BME280;35654;46.080;11.118;2023-04-21T06:51:42;99346.38;;;12.42;95.64
49759;BME280;35654;46.080;11.118;2023-04-21T06:54:09;99350.09;;;12.60;93.81
49759;BME280;35654;46.080;11.118;2023-04-21T06:56:35;99359.16;;;12.60;93.37
49759;BME280;35654;46.080;11.118;2023-04-21T06:59:02;99355.88;;;12.72;93.27
49759;BME280;35654;46.080;11.118;2023-04-21T07:01:28;99351.59;;;13.02;87.80
49759;BME280;35654;46.080;11.118;2023-04-21T07:03:55;99346.72;;;12.99;87.49
49759;BME280;35654;46.080;11.118;2023-04-21T07:06:21;99345.09;;;13.11;87.96
49759;BME280;35654;46.080;11.118;2023-04-21T07:08:48;99339.25;;;13.13;87.18
49759;BME280;35654;46.080;11.118;2023-04-21T07:11:14;99343.66;;;13.14;87.80
49759;BME280;35654;46.080;11.118;2023-04-21T07:13:41;99341.25;;;13.21;86.32
49759;BME280;35654;46.080;11.118;2023-04-21T07:16:07;99342.75;;;13.27;83.96
49759;BME280;35654;46.080;11.118;2023-04-21T07:18:34;99348.03;;;13.37;83.58
49759;BME280;35654;46.080;11.118;2023-04-21T07:21:00;99352.50;;;13.33;83.95
49759;BME280;35654;46.080;11.118;2023-04-21T07:23:27;99349.13;;;13.58;82.25
49759;BME280;35654;46.080;11.118;2023-04-21T07:25:53;99353.56;;;13.46;82.27
49759;BME280;35654;46.080;11.118;2023-04-21T07:28:20;99357.31;;;13.27;81.84
49759;BME280;35654;46.080;11.118;2023-04-21T07:30:45;99365.25;;;13.29;81.35
49759;BME280;35654;46.080;11.118;2023-04-21T07:33:12;99355.41;;;13.28;81.09
49759;BME280;35654;46.080;11.118;2023-04-21T07:35:39;99357.88;;;13.38;81.59
49759;BME280;35654;46.080;11.118;2023-04-21T07:38:05;99350.31;;;13.43;82.21
49759;BME280;35654;46.080;11.118;2023-04-21T07:40:31;99360.38;;;13.48;83.53
49759;BME280;35654;46.080;11.118;2023-04-21T07:42:57;99357.06;;;13.37;83.04
49759;BME280;35654;46.080;11.118;2023-04-21T07:45:23;99360.38;;;13.48;83.45
49759;BME280;35654;46.080;11.118;2023-04-21T07:47:48;99365.72;;;13.75;78.97
49759;BME280;35654;46.080;11.118;2023-04-21T07:50:13;99361.56;;;13.86;78.41
49759;BME280;35654;46.080;11.118;2023-04-21T07:52:39;99361.31;;;14.05;77.99
49759;BME280;35654;46.080;11.118;2023-04-21T07:55:04;99356.81;;;14.48;77.17
49759;BME280;35654;46.080;11.118;2023-04-21T07:57:30;99360.56;;;14.70;75.39
49759;BME280;35654;46.080;11.118;2023-04-21T07:59:57;99376.47;;;14.90;75.56
49759;BME280;35654;46.080;11.118;2023-04-21T08:02:23;99379.09;;;15.03;73.46
49759;BME280;35654;46.080;11.118;2023-04-21T08:04:48;99368.53;;;15.14;69.93
49759;BME280;35654;46.080;11.118;2023-04-21T08:07:13;99367.59;;;15.10;69.27
49759;BME280;35654;46.080;11.118;2023-04-21T08:09:39;99368.53;;;15.31;69.87
49759;BME280;35654;46.080;11.118;2023-04-21T08:12:04;99369.81;;;14.99;68.24
49759;BME280;35654;46.080;11.118;2023-04-21T08:14:29;99368.06;;;15.21;69.09
49759;BME280;35654;46.080;11.118;2023-04-21T08:16:56;99366.75;;;15.27;71.43
49759;BME280;35654;46.080;11.118;2023-04-21T08:19:21;99370.81;;;15.12;70.13
49759;BME280;35654;46.080;11.118;2023-04-21T08:21:46;99371.75;;;15.33;70.26
49759;BME280;35654;46.080;11.118;2023-04-21T08:24:12;99369.66;;;15.22;65.78
49759;BME280;35654;46.080;11.118;2023-04-21T08:26:38;99370.47;;;15.05;67.20
49759;BME280;35654;46.080;11.118;2023-04-21T08:29:05;99379.09;;;15.21;68.37
49759;BME280;35654;46.080;11.118;2023-04-21T08:31:35;99377.78;;;15.18;68.20
49759;BME280;35654;46.080;11.118;2023-04-21T08:34:01;99375.03;;;15.18;64.78
49759;BME280;35654;46.080;11.118;2023-04-21T08:36:28;99382.31;;;15.14;65.57
49759;BME280;35654;46.080;11.118;2023-04-21T08:38:53;99380.03;;;15.07;66.37
49759;BME280;35654;46.080;11.118;2023-04-21T08:41:18;99381.50;;;14.96;67.04
49759;BME280;35654;46.080;11.118;2023-04-21T08:43:47;99384.13;;;15.10;66.70
49759;BME280;35654;46.080;11.118;2023-04-21T08:46:12;99382.16;;;15.10;67.39
49759;BME280;35654;46.080;11.118;2023-04-21T08:48:38;99377.94;;;15.30;66.38
49759;BME280;35654;46.080;11.118;2023-04-21T08:51:07;99379.22;;;15.33;64.94
49759;BME280;35654;46.080;11.118;2023-04-21T08:53:36;99385.56;;;15.42;64.61
49759;BME280;35654;46.080;11.118;2023-04-21T08:56:01;99382.97;;;15.54;65.61
49759;BME280;35654;46.080;11.118;2023-04-21T08:58:27;99386.84;;;15.36;64.46
49759;BME280;35654;46.080;11.118;2023-04-21T09:00:52;99389.78;;;15.22;64.95
49759;BME280;35654;46.080;11.118;2023-04-21T09:03:21;99382.00;;;15.07;65.00
49759;BME280;35654;46.080;11.118;2023-04-21T09:05:55;99380.56;;;15.35;62.92
49759;BME280;35654;46.080;11.118;2023-04-21T09:08:21;99381.34;;;15.53;62.38
49759;BME280;35654;46.080;11.118;2023-04-21T09:10:49;99379.22;;;15.67;62.05
49759;BME280;35654;46.080;11.118;2023-04-21T09:13:16;99374.28;;;15.90;63.39
49759;BME280;35654;46.080;11.118;2023-04-21T09:15:46;99374.03;;;16.12;60.97
49759;BME280;35654;46.080;11.118;2023-04-21T09:20:40;99369.59;;;16.66;60.61
49759;BME280;35654;46.080;11.118;2023-04-21T09:23:06;99371.31;;;17.00;59.65
49759;BME280;35654;46.080;11.118;2023-04-21T09:25:32;99368.84;;;16.98;58.35
49759;BME280;35654;46.080;11.118;2023-04-21T09:27:58;99369.16;;;17.05;58.36
49759;BME280;35654;46.080;11.118;2023-04-21T09:30:24;99367.47;;;17.45;57.86
49759;BME280;35654;46.080;11.118;2023-04-21T09:32:49;99373.16;;;17.28;57.00
49759;BME280;35654;46.080;11.118;2023-04-21T09:35:15;99371.50;;;17.15;55.34
49759;BME280;35654;46.080;11.118;2023-04-21T09:37:42;99374.66;;;17.26;55.97
49759;BME280;35654;46.080;11.118;2023-04-21T09:40:09;99368.38;;;17.70;55.24
49759;BME280;35654;46.080;11.118;2023-04-21T09:42:36;99365.91;;;17.89;55.78
49759;BME280;35654;46.080;11.118;2023-04-21T09:45:02;99366.81;;;18.50;53.58
49759;BME280;35654;46.080;11.118;2023-04-21T09:47:28;99357.22;;;17.79;53.29
49759;BME280;35654;46.080;11.118;2023-04-21T09:49:54;99352.63;;;17.50;53.93
49759;BME280;35654;46.080;11.118;2023-04-21T09:52:20;99348.63;;;17.60;53.37
49759;BME280;35654;46.080;11.118;2023-04-21T09:54:49;99354.88;;;17.15;54.74
49759;BME280;35654;46.080;11.118;2023-04-21T09:57:19;99353.78;;;17.28;53.02
49759;BME280;35654;46.080;11.118;2023-04-21T09:59:46;99351.28;;;17.35;52.81
49759;BME280;35654;46.080;11.118;2023-04-21T10:02:15;99350.41;;;17.43;53.14
49759;BME280;35654;46.080;11.118;2023-04-21T10:04:41;99348.91;;;17.79;51.60
49759;BME280;35654;46.080;11.118;2023-04-21T10:07:06;99343.91;;;18.29;51.46
49759;BME280;35654;46.080;11.118;2023-04-21T10:09:40;99341.59;;;18.19;51.11
49759;BME280;35654;46.080;11.118;2023-04-21T10:12:08;99335.34;;;18.22;51.99
49759;BME280;35654;46.080;11.118;2023-04-21T10:14:33;99328.63;;;17.99;52.77
49759;BME280;35654;46.080;11.118;2023-04-21T10:17:05;99322.25;;;17.74;54.14
49759;BME280;35654;46.080;11.118;2023-04-21T10:19:31;99329.34;;;18.20;52.53
49759;BME280;35654;46.080;11.118;2023-04-21T10:22:04;99324.13;;;18.43;51.64
49759;BME280;35654;46.080;11.118;2023-04-21T10:24:30;99317.56;;;18.59;50.70
49759;BME280;35654;46.080;11.118;2023-04-21T10:26:56;99319.19;;;18.60;50.50
49759;BME280;35654;46.080;11.118;2023-04-21T10:29:30;99318.13;;;18.77;49.73
49759;BME280;35654;46.080;11.118;2023-04-21T10:31:55;99314.56;;;19.04;47.51
49759;BME280;35654;46.080;11.118;2023-04-21T10:36:50;99308.06;;;19.68;46.79
49759;BME280;35654;46.080;11.118;2023-04-21T10:44:36;99291.47;;;20.18;44.15
49759;BME280;35654;46.080;11.118;2023-04-21T10:47:06;99289.88;;;20.33;44.65
49759;BME280;35654;46.080;11.118;2023-04-21T10:49:31;99289.78;;;19.83;45.74
49759;BME280;35654;46.080;11.118;2023-04-21T10:52:02;99282.31;;;19.55;46.28
49759;BME280;35654;46.080;11.118;2023-04-21T10:57:15;99274.53;;;19.76;44.37
49759;BME280;35654;46.080;11.118;2023-04-21T10:59:41;99266.75;;;21.82;40.79
49759;BME280;35654;46.080;11.118;2023-04-21T11:02:07;99270.25;;;24.21;35.82
49759;BME280;35654;46.080;11.118;2023-04-21T11:04:32;99253.00;;;26.48;31.53
49759;BME280;35654;46.080;11.118;2023-04-21T11:07:09;99255.88;;;27.52;30.28
49759;BME280;35654;46.080;11.118;2023-04-21T11:09:35;99253.91;;;28.89;27.88
49759;BME280;35654;46.080;11.118;2023-04-21T11:12:01;99242.97;;;28.95;26.88
49759;BME280;35654;46.080;11.118;2023-04-21T11:14:27;99239.03;;;28.48;27.92
49759;BME280;35654;46.080;11.118;2023-04-21T11:16:52;99238.66;;;28.46;28.21
49759;BME280;35654;46.080;11.118;2023-04-21T11:19:19;99230.81;;;28.23;27.78
49759;BME280;35654;46.080;11.118;2023-04-21T11:21:51;99232.44;;;30.13;27.06
49759;BME280;35654;46.080;11.118;2023-04-21T11:24:17;99223.94;;;30.36;25.01
49759;BME280;35654;46.080;11.118;2023-04-21T11:26:42;99223.53;;;30.81;25.82
49759;BME280;35654;46.080;11.118;2023-04-21T11:29:08;99224.00;;;30.99;26.32
49759;BME280;35654;46.080;11.118;2023-04-21T11:31:34;99219.66;;;30.28;25.90
49759;BME280;35654;46.080;11.118;2023-04-21T11:34:01;99213.13;;;31.53;24.03
49759;BME280;35654;46.080;11.118;2023-04-21T11:36:26;99211.56;;;31.32;24.33
49759;BME280;35654;46.080;11.118;2023-04-21T11:38:52;99209.56;;;32.17;22.86
49759;BME280;35654;46.080;11.118;2023-04-21T11:41:20;99203.81;;;32.94;21.90
49759;BME280;35654;46.080;11.118;2023-04-21T11:43:47;99197.66;;;33.24;22.32
49759;BME280;35654;46.080;11.118;2023-04-21T11:48:37;99196.44;;;29.94;24.35
49759;BME280;35654;46.080;11.118;2023-04-21T11:51:02;99192.84;;;29.10;25.39
49759;BME280;35654;46.080;11.118;2023-04-21T11:53:28;99208.72;;;28.59;26.22
49759;BME280;35654;46.080;11.118;2023-04-21T11:55:53;99201.63;;;28.07;27.52
49759;BME280;35654;46.080;11.118;2023-04-21T11:58:20;99204.38;;;26.76;28.21
49759;BME280;35654;46.080;11.118;2023-04-21T12:00:45;99208.84;;;24.42;31.74
49759;BME280;35654;46.080;11.118;2023-04-21T12:03:11;99211.78;;;23.25;33.04
49759;BME280;35654;46.080;11.118;2023-04-21T12:05:37;99206.00;;;22.44;35.40
49759;BME280;35654;46.080;11.118;2023-04-21T12:08:02;99204.41;;;22.46;36.00
49759;BME280;35654;46.080;11.118;2023-04-21T12:10:31;99203.34;;;21.11;37.94
49759;BME280;35654;46.080;11.118;2023-04-21T12:12:56;99209.41;;;20.98;39.37
49759;BME280;35654;46.080;11.118;2023-04-21T12:15:22;99211.06;;;21.40;37.48
49759;BME280;35654;46.080;11.118;2023-04-21T12:17:51;99211.88;;;21.22;39.29
49759;BME280;35654;46.080;11.118;2023-04-21T12:20:18;99208.59;;;21.35;38.31
49759;BME280;35654;46.080;11.118;2023-04-21T12:22:43;99190.63;;;22.31;35.89
49759;BME280;35654;46.080;11.118;2023-04-21T12:25:09;99203.47;;;24.16;33.04
49759;BME280;35654;46.080;11.118;2023-04-21T12:27:34;99204.56;;;23.57;33.14
49759;BME280;35654;46.080;11.118;2023-04-21T12:30:00;99200.06;;;23.08;34.43
49759;BME280;35654;46.080;11.118;2023-04-21T12:32:25;99203.66;;;22.49;35.80
49759;BME280;35654;46.080;11.118;2023-04-21T12:34:51;99200.97;;;22.56;34.73
49759;BME280;35654;46.080;11.118;2023-04-21T12:37:17;99202.44;;;22.77;34.38
49759;BME280;35654;46.080;11.118;2023-04-21T12:39:42;99195.63;;;21.92;34.51
49759;BME280;35654;46.080;11.118;2023-04-21T12:42:07;99196.13;;;22.24;34.37
49759;BME280;35654;46.080;11.118;2023-04-21T12:44:33;99190.56;;;24.66;31.67
49759;BME280;35654;46.080;11.118;2023-04-21T12:46:58;99186.47;;;26.27;29.30
49759;BME280;35654;46.080;11.118;2023-04-21T12:49:23;99188.28;;;28.14;26.24
49759;BME280;35654;46.080;11.118;2023-04-21T12:51:49;99180.13;;;29.82;24.00
49759;BME280;35654;46.080;11.118;2023-04-21T12:54:14;99177.41;;;31.59;21.94
49759;BME280;35654;46.080;11.118;2023-04-21T12:56:40;99177.34;;;30.48;23.80